Time;durP1;ratioP1;P1;durP2;ratioP2;P2;SDS_P1;SDS_P2;PMS_P1;PMS_P2;Temp;Humidity;BMP_temperature;BMP_pressure;BME280_temperature;BME280_humidity;BME280_pressure;Samples;Min_cycle;Max_cycle;Signal;HPM_P1;HPM_P2
2022/04/06 00:01:30;;;;;;;;;;;;;;;;;;2201963;60;2592;-69
2022/04/06 00:04:03;;;;;;;;;;;;;;;;;;2200367;59;2422;-69
2022/04/06 00:06:36;;;;;;;;;;;;;;;;;;2199150;59;1896;-69
2022/04/06 00:09:10;;;;;;;;;;;;;;;;;;2201290;60;1230;-69
2022/04/06 00:11:46;;;;;;;;;;;;;;;;;;2202787;59;1139;-69
2022/04/06 00:14:19;;;;;;;;;;;;;;;;;;2199764;59;1795;-69
2022/04/06 00:16:54;;;;;;;;;;;;;;;;;;2198768;66;1949;-70
2022/04/06 00:19:27;;;;;;;;;;;;;;;;;;2210382;59;2282;-70
2022/04/06 00:22:01;;;;;;;;;;;;;;;;;;2212213;66;1139;-69
2022/04/06 00:24:37;;;;;;;;;;;;;;;;;;2203837;66;1231;-69
2022/04/06 00:27:17;;;;;;;;;;;;;;;;;;2205779;59;1672;-69
2022/04/06 00:29:50;;;;;;;;;;;;;;;;;;2211197;66;1289;-69
2022/04/06 00:32:23;;;;;;;;;;;;;;;;;;2203231;59;1274;-69
2022/04/06 00:37:48;;;;;;;;;;;;;;;;;;2201898;66;1172;-69
2022/04/06 00:40:22;;;;;;;;;;;;;;;;;;2212120;59;3742;-72
2022/04/06 00:42:58;;;;;;;;;;;;;;;;;;2215509;59;1098;-73
2022/04/06 00:45:31;;;;;;;;;;;;;;;;;;2212614;66;1464;-73
2022/04/06 00:48:05;;;;;;;;;;;;;;;;;;2216752;59;1260;-73
2022/04/06 00:50:38;;;;;;;;;;;;;;;;;;2213538;66;1209;-73
2022/04/06 00:53:14;;;;;;;;;;;;;;;;;;2212928;59;1272;-73
2022/04/06 00:55:47;;;;;;;;;;;;;;;;;;2213296;59;1917;-73
2022/04/06 00:58:24;;;;;;;;;;;;;;;;;;2212446;67;1279;-73
2022/04/06 01:00:57;;;;;;;;;;;;;;;;;;2211835;59;1600;-72
2022/04/06 01:03:30;;;;;;;;;;;;;;;;;;2211321;59;2166;-72
2022/04/06 01:06:04;;;;;;;;;;;;;;;;;;2211796;59;2551;-72
2022/04/06 01:08:37;;;;;;;;;;;;;;;;;;2213497;59;1281;-72
2022/04/06 01:11:10;;;;;;;;;;;;;;;;;;2214175;67;1293;-72
2022/04/06 01:13:47;;;;;;;;;;;;;;;;;;2213976;59;1401;-72
2022/04/06 01:16:20;;;;;;;;;;;;;;;;;;2213727;67;1924;-72
2022/04/06 01:18:53;;;;;;;;;;;;;;;;;;2213415;59;2033;-72
2022/04/06 01:21:26;;;;;;;;;;;;;;;;;;2214465;67;1173;-72
2022/04/06 01:24:02;;;;;;;;;;;;;;;;;;2214089;59;1107;-72
2022/04/06 01:26:36;;;;;;;;;;;;;;;;;;2209286;67;1130;-72
2022/04/06 01:29:09;;;;;;;;;;;;;;;;;;2212677;59;1344;-72
2022/04/06 01:31:42;;;;;;;;;;;;;;;;;;2209645;67;1304;-72
2022/04/06 01:34:15;;;;;;;;;;;;;;;;;;2213268;67;1253;-72
2022/04/06 01:36:48;;;;;;;;;;;;;;;;;;2212340;59;1972;-72
2022/04/06 01:39:25;;;;;;;;;;;;;;;;;;2213099;59;1610;-72
2022/04/06 01:41:58;;;;;;;;;;;;;;;;;;2212785;59;1121;-72
2022/04/06 01:44:32;;;;;;;;;;;;;;;;;;2212166;67;1077;-72
2022/04/06 01:47:07;;;;;;;;;;;;;;;;;;2213218;67;1232;-72
2022/04/06 01:52:29;;;;;;;;;;;;;;;;;;2212423;59;1245;-72
2022/04/06 01:55:07;;;;;;;;;;;;;;;;;;2211698;59;1573;-72
2022/04/06 01:57:40;;;;;;;;;;;;;;;;;;2213605;59;1949;-72
2022/04/06 02:00:16;;;;;;;;;;;;;;;;;;2213035;59;1638;-72
2022/04/06 02:02:51;;;;;;;;;;;;;;;;;;2213315;59;1679;-72
2022/04/06 02:05:25;;;;;;;;;;;;;;;;;;2210442;59;2478;-72
2022/04/06 02:07:58;;;;;;;;;;;;;;;;;;2210528;59;1616;-72
2022/04/06 02:10:33;;;;;;;;;;;;;;;;;;2211241;60;1169;-72
2022/04/06 02:13:07;;;;;;;;;;;;;;;;;;2211210;59;1723;-72
2022/04/06 02:15:40;;;;;;;;;;;;;;;;;;2213383;59;1931;-72
2022/04/06 02:18:14;;;;;;;;;;;;;;;;;;2211022;59;2051;-72
2022/04/06 02:20:48;;;;;;;;;;;;;;;;;;2211152;59;1816;-72
2022/04/06 02:23:22;;;;;;;;;;;;;;;;;;2211902;59;1817;-72
2022/04/06 02:25:58;;;;;;;;;;;;;;;;;;2210449;67;1976;-73
2022/04/06 02:28:31;;;;;;;;;;;;;;;;;;2212197;59;1328;-72
2022/04/06 02:31:04;;;;;;;;;;;;;;;;;;2211238;59;1704;-73
2022/04/06 02:33:37;;;;;;;;;;;;;;;;;;2212109;67;1290;-73
2022/04/06 02:36:10;;;;;;;;;;;;;;;;;;2211995;67;1992;-73
2022/04/06 02:38:44;;;;;;;;;;;;;;;;;;2211444;59;1601;-73
2022/04/06 02:41:20;;;;;;;;;;;;;;;;;;2212974;67;1211;-73
2022/04/06 02:43:53;;;;;;;;;;;;;;;;;;2210556;67;2039;-73
2022/04/06 02:46:26;;;;;;;;;;;;;;;;;;2212748;59;1247;-72
2022/04/06 02:48:59;;;;;;;;;;;;;;;;;;2211296;59;1362;-73
2022/04/06 02:51:35;;;;;;;;;;;;;;;;;;2212996;67;1188;-73
2022/04/06 02:54:08;;;;;;;;;;;;;;;;;;2212769;67;1139;-72
2022/04/06 02:56:44;;;;;;;;;;;;;;;;;;2211621;67;1932;-73
2022/04/06 02:59:17;;;;;;;;;;;;;;;;;;2212930;59;2017;-73
2022/04/06 03:01:50;;;;;;;;;;;;;;;;;;2212282;67;1211;-72
2022/04/06 03:04:23;;;;;;;;;;;;;;;;;;2212280;59;2521;-73
2022/04/06 03:06:57;;;;;;;;;;;;;;;;;;2210206;59;2310;-73
2022/04/06 03:09:30;;;;;;;;;;;;;;;;;;2211668;59;1234;-73
2022/04/06 03:12:07;;;;;;;;;;;;;;;;;;2211563;59;1644;-72
2022/04/06 03:14:41;;;;;;;;;;;;;;;;;;2212240;67;1090;-72
2022/04/06 03:17:15;;;;;;;;;;;;;;;;;;2212169;59;1953;-72
2022/04/06 03:19:49;;;;;;;;;;;;;;;;;;2212014;59;1847;-72
2022/04/06 03:22:22;;;;;;;;;;;;;;;;;;2212627;59;1073;-73
2022/04/06 03:24:55;;;;;;;;;;;;;;;;;;2212772;59;1143;-72
2022/04/06 03:27:31;;;;;;;;;;;;;;;;;;2212483;67;1081;-72
2022/04/06 03:30:05;;;;;;;;;;;;;;;;;;2212118;59;1262;-72
2022/04/06 03:32:38;;;;;;;;;;;;;;;;;;2210298;67;1466;-73
2022/04/06 03:35:12;;;;;;;;;;;;;;;;;;2212642;67;1112;-73
2022/04/06 03:37:45;;;;;;;;;;;;;;;;;;2212918;67;1935;-72
2022/04/06 03:40:18;;;;;;;;;;;;;;;;;;2211398;59;1625;-72
2022/04/06 03:42:54;;;;;;;;;;;;;;;;;;2213297;59;1135;-73
2022/04/06 03:45:27;;;;;;;;;;;;;;;;;;2212964;67;1222;-72
2022/04/06 03:48:00;;;;;;;;;;;;;;;;;;2212168;67;1119;-72
2022/04/06 03:50:34;;;;;;;;;;;;;;;;;;2212365;59;1275;-72
2022/04/06 03:53:07;;;;;;;;;;;;;;;;;;2212442;59;1253;-72
2022/04/06 03:55:40;;;;;;;;;;;;;;;;;;2213453;59;1129;-72
2022/04/06 03:58:16;;;;;;;;;;;;;;;;;;2212319;59;1995;-72
2022/04/06 04:00:49;;;;;;;;;;;;;;;;;;2211879;59;1712;-72
2022/04/06 04:03:23;;;;;;;;;;;;;;;;;;2212274;67;1210;-73
2022/04/06 04:05:56;;;;;;;;;;;;;;;;;;2211189;59;2539;-72
2022/04/06 04:08:29;;;;;;;;;;;;;;;;;;2210666;59;2218;-72
2022/04/06 04:11:02;;;;;;;;;;;;;;;;;;2210872;59;1160;-73
2022/04/06 04:13:38;;;;;;;;;;;;;;;;;;2213854;59;1255;-72
2022/04/06 04:16:11;;;;;;;;;;;;;;;;;;2212408;59;1144;-73
2022/04/06 04:18:44;;;;;;;;;;;;;;;;;;2212540;59;1964;-72
2022/04/06 04:21:36;;;;;;;;;;;;;;;;;;2213029;67;1252;-72
2022/04/06 04:24:10;;;;;;;;;;;;;;;;;;2212157;67;1193;-72
2022/04/06 04:26:43;;;;;;;;;;;;;;;;;;2212149;67;1199;-72
2022/04/06 04:29:19;;;;;;;;;;;;;;;;;;2212201;67;1224;-73
2022/04/06 04:31:52;;;;;;;;;;;;;;;;;;2212013;59;1244;-73
2022/04/06 04:34:26;;;;;;;;;;;;;;;;;;2213241;67;1089;-73
2022/04/06 04:36:59;;;;;;;;;;;;;;;;;;2212303;67;1924;-72
2022/04/06 04:39:32;;;;;;;;;;;;;;;;;;2213122;59;1637;-73
2022/04/06 04:42:06;;;;;;;;;;;;;;;;;;2211657;59;1534;-73
2022/04/06 04:44:42;;;;;;;;;;;;;;;;;;2210685;59;1946;-73
2022/04/06 04:47:16;;;;;;;;;;;;;;;;;;2208734;67;1337;-73
2022/04/06 04:49:49;;;;;;;;;;;;;;;;;;2212258;67;1223;-73
2022/04/06 04:52:22;;;;;;;;;;;;;;;;;;2210982;59;1573;-73
2022/04/06 04:54:55;;;;;;;;;;;;;;;;;;2206622;59;1805;-73
2022/04/06 04:57:28;;;;;;;;;;;;;;;;;;2210317;59;1930;-73
2022/04/06 05:00:06;;;;;;;;;;;;;;;;;;2205367;59;1914;-73
2022/04/06 05:02:39;;;;;;;;;;;;;;;;;;2204640;59;2242;-73
2022/04/06 05:05:13;;;;;;;;;;;;;;;;;;2208597;59;2465;-73
2022/04/06 05:07:46;;;;;;;;;;;;;;;;;;2208606;59;2470;-73
2022/04/06 05:10:20;;;;;;;;;;;;;;;;;;2211864;67;2289;-73
2022/04/06 05:12:53;;;;;;;;;;;;;;;;;;2212867;59;1433;-73
2022/04/06 05:15:29;;;;;;;;;;;;;;;;;;2211791;59;1245;-72
2022/04/06 05:18:02;;;;;;;;;;;;;;;;;;2211467;59;2224;-72
2022/04/06 05:20:36;;;;;;;;;;;;;;;;;;2212013;59;2302;-73
2022/04/06 05:23:09;;;;;;;;;;;;;;;;;;2213600;67;1121;-72
2022/04/06 05:25:42;;;;;;;;;;;;;;;;;;2211074;67;2143;-72
2022/04/06 05:28:16;;;;;;;;;;;;;;;;;;2212296;59;1362;-73
2022/04/06 05:30:52;;;;;;;;;;;;;;;;;;2211714;59;1138;-73
2022/04/06 05:33:25;;;;;;;;;;;;;;;;;;2212383;67;1170;-73
2022/04/06 05:35:58;;;;;;;;;;;;;;;;;;2211969;67;1206;-72
2022/04/06 05:38:34;;;;;;;;;;;;;;;;;;2211040;67;1975;-73
2022/04/06 05:41:07;;;;;;;;;;;;;;;;;;2209932;59;2682;-72
2022/04/06 05:43:40;;;;;;;;;;;;;;;;;;2211394;59;2374;-72
2022/04/06 05:46:16;;;;;;;;;;;;;;;;;;2212655;67;1188;-72
2022/04/06 05:48:49;;;;;;;;;;;;;;;;;;2211045;59;1690;-73
2022/04/06 05:51:23;;;;;;;;;;;;;;;;;;2212794;67;1101;-73
2022/04/06 05:53:56;;;;;;;;;;;;;;;;;;2212124;67;1271;-72
2022/04/06 05:56:29;;;;;;;;;;;;;;;;;;2211110;59;1803;-73
2022/04/06 05:59:03;;;;;;;;;;;;;;;;;;2211846;59;1937;-72
2022/04/06 06:01:38;;;;;;;;;;;;;;;;;;2212343;59;1278;-73
2022/04/06 06:04:12;;;;;;;;;;;;;;;;;;2212701;67;1229;-73
2022/04/06 06:06:45;;;;;;;;;;;;;;;;;;2212973;67;1234;-73
2022/04/06 06:09:18;;;;;;;;;;;;;;;;;;2205535;59;2597;-72
2022/04/06 06:11:51;;;;;;;;;;;;;;;;;;2210578;67;1171;-73
2022/04/06 06:14:25;;;;;;;;;;;;;;;;;;2210128;59;1754;-73
2022/04/06 06:17:01;;;;;;;;;;;;;;;;;;2210749;59;1229;-72
2022/04/06 06:19:34;;;;;;;;;;;;;;;;;;2210283;59;1913;-72
2022/04/06 06:22:07;;;;;;;;;;;;;;;;;;2206245;59;1471;-72
2022/04/06 06:24:40;;;;;;;;;;;;;;;;;;2212637;67;1236;-73
2022/04/06 06:27:19;;;;;;;;;;;;;;;;;;2212951;67;1271;-72
2022/04/06 06:29:52;;;;;;;;;;;;;;;;;;2213097;67;1286;-73
2022/04/06 06:32:28;;;;;;;;;;;;;;;;;;2213836;59;1288;-73
2022/04/06 06:35:01;;;;;;;;;;;;;;;;;;2212490;59;1699;-72
2022/04/06 06:37:35;;;;;;;;;;;;;;;;;;2209054;59;1988;-72
2022/04/06 06:40:08;;;;;;;;;;;;;;;;;;2210793;53;2050;-68
2022/04/06 06:42:41;;;;;;;;;;;;;;;;;;2203722;59;1258;-68
2022/04/06 06:45:14;;;;;;;;;;;;;;;;;;2206446;59;1227;-68
2022/04/06 06:47:51;;;;;;;;;;;;;;;;;;2204350;59;1211;-68
2022/04/06 06:50:24;;;;;;;;;;;;;;;;;;2205098;58;2019;-68
2022/04/06 06:52:57;;;;;;;;;;;;;;;;;;2215821;66;1261;-68
2022/04/06 06:55:31;;;;;;;;;;;;;;;;;;2211811;59;1093;-68
2022/04/06 06:58:04;;;;;;;;;;;;;;;;;;2204748;59;1910;-68
2022/04/06 07:00:37;;;;;;;;;;;;;;;;;;2208283;59;1919;-68
2022/04/06 07:03:13;;;;;;;;;;;;;;;;;;2204785;59;1262;-68
2022/04/06 07:05:46;;;;;;;;;;;;;;;;;;2203608;67;1175;-68
2022/04/06 07:08:19;;;;;;;;;;;;;;;;;;2201771;67;2446;-68
2022/04/06 07:10:52;;;;;;;;;;;;;;;;;;2204998;59;3431;-69
2022/04/06 07:13:25;;;;;;;;;;;;;;;;;;2207625;59;1582;-68
2022/04/06 07:15:58;;;;;;;;;;;;;;;;;;2201254;59;1859;-68
2022/04/06 07:18:34;;;;;;;;;;;;;;;;;;2202939;59;2015;-68
2022/04/06 07:21:08;;;;;;;;;;;;;;;;;;2205521;59;1883;-69
2022/04/06 07:23:43;;;;;;;;;;;;;;;;;;2203361;67;1338;-69
2022/04/06 07:26:16;;;;;;;;;;;;;;;;;;2203565;67;1181;-69
2022/04/06 07:28:50;;;;;;;;;;;;;;;;;;2203255;59;1234;-69
2022/04/06 07:31:23;;;;;;;;;;;;;;;;;;2203055;59;1279;-69
2022/04/06 07:33:59;;;;;;;;;;;;;;;;;;2202286;59;1386;-68
2022/04/06 07:36:32;;;;;;;;;;;;;;;;;;2202459;60;1089;-68
2022/04/06 07:39:06;;;;;;;;;;;;;;;;;;2202220;59;1940;-68
2022/04/06 07:41:39;;;;;;;;;;;;;;;;;;2204713;58;1171;-69
2022/04/06 07:44:12;;;;;;;;;;;;;;;;;;2203087;59;1233;-69
2022/04/06 07:46:45;;;;;;;;;;;;;;;;;;2202787;59;1241;-68
2022/04/06 07:49:22;;;;;;;;;;;;;;;;;;2202782;59;1253;-68
2022/04/06 07:51:55;;;;;;;;;;;;;;;;;;2202815;67;1168;-68
2022/04/06 07:54:28;;;;;;;;;;;;;;;;;;2203049;67;1247;-68
2022/04/06 07:57:01;;;;;;;;;;;;;;;;;;2202973;59;1077;-69
2022/04/06 07:59:35;;;;;;;;;;;;;;;;;;2206130;59;1930;-68
2022/04/06 08:02:08;;;;;;;;;;;;;;;;;;2203121;67;1172;-68
2022/04/06 08:04:44;;;;;;;;;;;;;;;;;;2202789;67;1284;-69
2022/04/06 08:07:17;;;;;;;;;;;;;;;;;;2203721;59;1289;-68
2022/04/06 08:09:50;;;;;;;;;;;;;;;;;;2203535;58;2390;-69
2022/04/06 08:12:23;;;;;;;;;;;;;;;;;;2205361;59;2465;-68
2022/04/06 08:14:56;;;;;;;;;;;;;;;;;;2206206;59;1215;-69
2022/04/06 08:17:30;;;;;;;;;;;;;;;;;;2203258;59;1856;-69
2022/04/06 08:20:08;;;;;;;;;;;;;;;;;;2203847;59;2085;-69
2022/04/06 08:22:42;;;;;;;;;;;;;;;;;;2203315;67;1278;-69
2022/04/06 08:25:16;;;;;;;;;;;;;;;;;;2202697;58;1827;-69
2022/04/06 08:27:49;;;;;;;;;;;;;;;;;;2206615;59;1912;-69
2022/04/06 08:30:22;;;;;;;;;;;;;;;;;;2206654;58;1661;-70
2022/04/06 08:32:58;;;;;;;;;;;;;;;;;;2205590;66;1293;-70
2022/04/06 08:35:35;;;;;;;;;;;;;;;;;;2209134;59;1682;-69
2022/04/06 08:38:09;;;;;;;;;;;;;;;;;;2209550;59;2334;-69
2022/04/06 08:40:43;;;;;;;;;;;;;;;;;;2203794;59;1883;-70
2022/04/06 08:43:17;;;;;;;;;;;;;;;;;;2204157;59;1767;-69
2022/04/06 08:45:51;;;;;;;;;;;;;;;;;;2202739;59;1240;-70
2022/04/06 08:48:29;;;;;;;;;;;;;;;;;;2205426;59;1802;-69
2022/04/06 08:51:08;;;;;;;;;;;;;;;;;;2208508;59;1189;-70
2022/04/06 08:53:41;;;;;;;;;;;;;;;;;;2204041;66;1224;-70
2022/04/06 08:56:15;;;;;;;;;;;;;;;;;;2202613;59;1191;-70
2022/04/06 08:58:48;;;;;;;;;;;;;;;;;;2203034;59;1928;-70
2022/04/06 09:01:21;;;;;;;;;;;;;;;;;;2202763;59;1936;-70
2022/04/06 09:03:55;;;;;;;;;;;;;;;;;;2204058;59;1687;-70
2022/04/06 09:06:32;;;;;;;;;;;;;;;;;;2209684;58;1554;-69
2022/04/06 09:09:05;;;;;;;;;;;;;;;;;;2212308;66;1236;-70
2022/04/06 09:11:43;;;;;;;;;;;;;;;;;;2208163;59;2449;-70
2022/04/06 09:14:16;;;;;;;;;;;;;;;;;;2208873;59;2173;-70
2022/04/06 09:17:02;;;;;;;;;;;;;;;;;;2201030;59;1961;-69
2022/04/06 09:19:38;;;;;;;;;;;;;;;;;;2204067;59;2133;-70
2022/04/06 09:22:14;;;;;;;;;;;;;;;;;;2204967;59;1221;-70
2022/04/06 09:24:57;;;;;;;;;;;;;;;;;;2203325;67;1253;-70
2022/04/06 09:27:34;;;;;;;;;;;;;;;;;;2202134;59;1870;-70
2022/04/06 09:30:08;;;;;;;;;;;;;;;;;;2206233;58;1810;-70
2022/04/06 09:32:43;;;;;;;;;;;;;;;;;;2207797;59;1179;-70
2022/04/06 09:35:34;;;;;;;;;;;;;;;;;;2202722;59;1717;-70
2022/04/06 09:38:14;;;;;;;;;;;;;;;;;;2210263;59;1585;-70
2022/04/06 09:40:47;;;;;;;;;;;;;;;;;;2204518;59;1918;-70
2022/04/06 09:43:27;;;;;;;;;;;;;;;;;;2203586;58;1669;-70
2022/04/06 09:49:05;;;;;;;;;;;;;;;;;;2202452;59;1783;-70
2022/04/06 09:51:39;;;;;;;;;;;;;;;;;;2202695;58;1700;-70
2022/04/06 09:54:15;;;;;;;;;;;;;;;;;;2208963;59;1702;-70
2022/04/06 09:56:49;;;;;;;;;;;;;;;;;;2207864;58;1715;-70
2022/04/06 09:59:23;;;;;;;;;;;;;;;;;;2207728;58;1945;-70
2022/04/06 10:01:57;;;;;;;;;;;;;;;;;;2196006;59;2483;-70
2022/04/06 10:04:33;;;;;;;;;;;;;;;;;;2201196;59;3322;-70
2022/04/06 10:07:06;;;;;;;;;;;;;;;;;;2200463;59;1840;-70
2022/04/06 10:09:42;;;;;;;;;;;;;;;;;;2208321;59;1811;-70
2022/04/06 10:12:16;;;;;;;;;;;;;;;;;;2202456;59;2168;-70
2022/04/06 10:14:50;;;;;;;;;;;;;;;;;;2202273;59;2438;-70
2022/04/06 10:17:24;;;;;;;;;;;;;;;;;;2203352;59;1285;-70
2022/04/06 10:20:04;;;;;;;;;;;;;;;;;;2203468;59;2336;-70
2022/04/06 10:22:42;;;;;;;;;;;;;;;;;;2201018;58;2527;-72
2022/04/06 10:25:25;;;;;;;;;;;;;;;;;;2202768;58;2762;-70
2022/04/06 10:28:00;;;;;;;;;;;;;;;;;;2202061;59;1807;-70
2022/04/06 10:30:33;;;;;;;;;;;;;;;;;;2203134;59;2275;-70
2022/04/06 10:33:20;;;;;;;;;;;;;;;;;;2203713;58;1770;-71
2022/04/06 10:36:13;;;;;;;;;;;;;;;;;;2205812;58;1723;-70
2022/04/06 10:39:01;;;;;;;;;;;;;;;;;;2210660;59;1990;-70
2022/04/06 10:41:38;;;;;;;;;;;;;;;;;;2205710;59;1694;-71
2022/04/06 10:44:31;;;;;;;;;;;;;;;;;;2207941;58;1779;-70
2022/04/06 10:47:09;;;;;;;;;;;;;;;;;;2204585;59;1649;-71
2022/04/06 10:49:42;;;;;;;;;;;;;;;;;;2202783;59;1315;-70
2022/04/06 10:52:23;;;;;;;;;;;;;;;;;;2203166;67;1144;-71
2022/04/06 10:54:58;;;;;;;;;;;;;;;;;;2203150;59;1367;-70
2022/04/06 10:57:46;;;;;;;;;;;;;;;;;;2200388;59;1638;-70
2022/04/06 11:00:24;;;;;;;;;;;;;;;;;;2201937;59;2003;-68
2022/04/06 11:03:02;;;;;;;;;;;;;;;;;;2202013;59;1783;-68
2022/04/06 11:05:50;;;;;;;;;;;;;;;;;;2206478;59;1407;-69
2022/04/06 11:11:45;;;;;;;;;;;;;;;;;;2201073;59;1116;-69
2022/04/06 11:14:30;;;;;;;;;;;;;;;;;;2204078;59;2222;-69
2022/04/06 11:17:26;;;;;;;;;;;;;;;;;;2210313;59;1080;-68
2022/04/06 11:19:59;;;;;;;;;;;;;;;;;;2201618;59;2026;-68
2022/04/06 11:22:32;;;;;;;;;;;;;;;;;;2203228;59;1223;-69
2022/04/06 11:25:08;;;;;;;;;;;;;;;;;;2202900;59;1122;-69
2022/04/06 11:27:44;;;;;;;;;;;;;;;;;;2202941;59;1135;-69
2022/04/06 11:30:18;;;;;;;;;;;;;;;;;;2203107;58;1697;-69
2022/04/06 11:32:57;;;;;;;;;;;;;;;;;;2202917;59;1644;-69
2022/04/06 11:35:31;;;;;;;;;;;;;;;;;;2203608;59;2379;-69
2022/04/06 11:38:05;;;;;;;;;;;;;;;;;;2201387;59;2403;-69
2022/04/06 11:40:39;;;;;;;;;;;;;;;;;;2206495;59;1943;-70
2022/04/06 11:43:12;;;;;;;;;;;;;;;;;;2208585;59;1740;-71
2022/04/06 11:45:47;;;;;;;;;;;;;;;;;;2210447;59;1337;-70
2022/04/06 11:48:23;;;;;;;;;;;;;;;;;;2210484;58;1558;-70
2022/04/06 11:51:05;;;;;;;;;;;;;;;;;;2208958;59;1241;-70
2022/04/06 11:53:39;;;;;;;;;;;;;;;;;;2205724;67;1930;-70
2022/04/06 11:56:12;;;;;;;;;;;;;;;;;;2203796;59;1155;-70
2022/04/06 11:58:47;;;;;;;;;;;;;;;;;;2205047;58;1599;-70
2022/04/06 12:01:27;;;;;;;;;;;;;;;;;;2205603;59;1987;-70
2022/04/06 12:04:03;;;;;;;;;;;;;;;;;;2208086;58;1765;-70
2022/04/06 12:06:37;;;;;;;;;;;;;;;;;;2211586;66;1200;-71
2022/04/06 12:09:10;;;;;;;;;;;;;;;;;;2207723;58;1329;-70
2022/04/06 12:11:44;;;;;;;;;;;;;;;;;;2203438;59;1254;-70
2022/04/06 12:14:17;;;;;;;;;;;;;;;;;;2203766;59;1702;-70
2022/04/06 12:16:51;;;;;;;;;;;;;;;;;;2208940;59;1163;-70
2022/04/06 12:19:33;;;;;;;;;;;;;;;;;;2204686;59;1926;-70
2022/04/06 12:22:11;;;;;;;;;;;;;;;;;;2203068;67;1169;-70
2022/04/06 12:24:46;;;;;;;;;;;;;;;;;;2203327;59;1115;-70
2022/04/06 12:27:29;;;;;;;;;;;;;;;;;;2203536;66;1128;-70
2022/04/06 12:30:07;;;;;;;;;;;;;;;;;;2203889;59;1668;-70
2022/04/06 12:32:43;;;;;;;;;;;;;;;;;;2208375;59;1288;-70
2022/04/06 12:35:24;;;;;;;;;;;;;;;;;;2207693;59;1697;-70
2022/04/06 12:37:57;;;;;;;;;;;;;;;;;;2211689;66;1482;-70
2022/04/06 12:40:30;;;;;;;;;;;;;;;;;;2208782;53;2345;-71
2022/04/06 12:43:03;;;;;;;;;;;;;;;;;;2196444;59;1138;-71
2022/04/06 12:45:49;;;;;;;;;;;;;;;;;;2199741;59;1219;-71
2022/04/06 12:48:22;;;;;;;;;;;;;;;;;;2198093;59;1358;-71
2022/04/06 12:50:58;;;;;;;;;;;;;;;;;;2197948;59;1238;-72
2022/04/06 12:53:31;;;;;;;;;;;;;;;;;;2194827;59;1690;-71
2022/04/06 12:56:11;;;;;;;;;;;;;;;;;;2195106;67;1240;-71
2022/04/06 12:58:44;;;;;;;;;;;;;;;;;;2195940;59;1125;-71
2022/04/06 13:01:18;;;;;;;;;;;;;;;;;;2195329;59;1924;-69
2022/04/06 13:03:58;;;;;;;;;;;;;;;;;;2196139;59;1681;-70
2022/04/06 13:06:34;;;;;;;;;;;;;;;;;;2195219;67;1137;-70
2022/04/06 13:09:13;;;;;;;;;;;;;;;;;;2195168;59;1226;-69
2022/04/06 13:11:46;;;;;;;;;;;;;;;;;;2195101;59;1159;-70
2022/04/06 13:14:20;;;;;;;;;;;;;;;;;;2196602;59;1539;-70
2022/04/06 13:16:53;;;;;;;;;;;;;;;;;;2195908;67;1109;-69
2022/04/06 13:19:26;;;;;;;;;;;;;;;;;;2202830;59;2040;-69
2022/04/06 13:22:02;;;;;;;;;;;;;;;;;;2195489;67;1478;-69
2022/04/06 13:24:36;;;;;;;;;;;;;;;;;;2195388;67;1360;-70
2022/04/06 13:27:09;;;;;;;;;;;;;;;;;;2195773;60;1231;-69
2022/04/06 13:29:43;;;;;;;;;;;;;;;;;;2197256;67;1370;-69
2022/04/06 13:32:17;;;;;;;;;;;;;;;;;;2197207;59;1194;-70
2022/04/06 13:34:50;;;;;;;;;;;;;;;;;;2197266;59;1289;-69
2022/04/06 13:37:27;;;;;;;;;;;;;;;;;;2197617;59;1163;-69
2022/04/06 13:40:00;;;;;;;;;;;;;;;;;;2196238;59;1934;-70
2022/04/06 13:42:34;;;;;;;;;;;;;;;;;;2195923;67;1264;-69
2022/04/06 13:45:07;;;;;;;;;;;;;;;;;;2196917;59;1230;-69
2022/04/06 13:47:41;;;;;;;;;;;;;;;;;;2197106;59;1292;-70
2022/04/06 13:50:14;;;;;;;;;;;;;;;;;;2196558;59;1314;-70
2022/04/06 13:52:49;;;;;;;;;;;;;;;;;;2197280;59;1252;-69
2022/04/06 13:55:24;;;;;;;;;;;;;;;;;;2196742;67;1216;-69
2022/04/06 13:57:57;;;;;;;;;;;;;;;;;;2194839;59;1653;-70
2022/04/06 14:00:30;;;;;;;;;;;;;;;;;;2196170;59;2179;-69
2022/04/06 14:03:03;;;;;;;;;;;;;;;;;;2198085;59;1179;-70
2022/04/06 14:05:38;;;;;;;;;;;;;;;;;;2197357;59;1184;-69
2022/04/06 14:08:13;;;;;;;;;;;;;;;;;;2197399;67;1252;-69
2022/04/06 14:10:47;;;;;;;;;;;;;;;;;;2197333;59;1264;-69
2022/04/06 14:13:21;;;;;;;;;;;;;;;;;;2195307;59;1316;-70
2022/04/06 14:15:55;;;;;;;;;;;;;;;;;;2196867;59;1113;-70
2022/04/06 14:18:28;;;;;;;;;;;;;;;;;;2196610;67;1230;-70
2022/04/06 14:21:01;;;;;;;;;;;;;;;;;;2206344;59;1933;-69
2022/04/06 14:23:38;;;;;;;;;;;;;;;;;;2196032;67;1160;-70
2022/04/06 14:26:12;;;;;;;;;;;;;;;;;;2195001;67;1267;-70
2022/04/06 14:28:45;;;;;;;;;;;;;;;;;;2196611;67;1366;-69
2022/04/06 14:31:18;;;;;;;;;;;;;;;;;;2196412;59;1298;-69
2022/04/06 14:33:52;;;;;;;;;;;;;;;;;;2197842;59;1329;-69
2022/04/06 14:36:25;;;;;;;;;;;;;;;;;;2197419;67;1116;-70
2022/04/06 14:39:01;;;;;;;;;;;;;;;;;;2197399;59;1610;-69
2022/04/06 14:41:34;;;;;;;;;;;;;;;;;;2194869;59;1924;-69
2022/04/06 14:44:07;;;;;;;;;;;;;;;;;;2197718;67;1189;-69
2022/04/06 14:46:40;;;;;;;;;;;;;;;;;;2196227;67;1155;-69
2022/04/06 14:49:13;;;;;;;;;;;;;;;;;;2196880;59;1263;-69
2022/04/06 14:51:46;;;;;;;;;;;;;;;;;;2196208;60;1096;-69
2022/04/06 14:54:22;;;;;;;;;;;;;;;;;;2197399;59;1342;-69
2022/04/06 14:56:56;;;;;;;;;;;;;;;;;;2195983;59;1153;-69
2022/04/06 14:59:29;;;;;;;;;;;;;;;;;;2195617;59;1994;-69
2022/04/06 15:02:03;;;;;;;;;;;;;;;;;;2196664;67;1954;-69
2022/04/06 15:04:36;;;;;;;;;;;;;;;;;;2193685;59;1670;-70
2022/04/06 15:07:10;;;;;;;;;;;;;;;;;;2195352;67;1139;-69
2022/04/06 15:09:47;;;;;;;;;;;;;;;;;;2195977;67;1204;-69
2022/04/06 15:12:20;;;;;;;;;;;;;;;;;;2196817;59;1307;-69
2022/04/06 15:14:53;;;;;;;;;;;;;;;;;;2196784;59;1158;-69
2022/04/06 15:17:26;;;;;;;;;;;;;;;;;;2196895;67;1187;-69
2022/04/06 15:19:59;;;;;;;;;;;;;;;;;;2195000;59;1719;-69
2022/04/06 15:22:32;;;;;;;;;;;;;;;;;;2195423;59;1928;-69
2022/04/06 15:25:09;;;;;;;;;;;;;;;;;;2202698;59;1944;-69
2022/04/06 15:27:42;;;;;;;;;;;;;;;;;;2206046;59;1752;-69
2022/04/06 15:30:15;;;;;;;;;;;;;;;;;;2195515;63;1359;-69
2022/04/06 15:32:49;;;;;;;;;;;;;;;;;;2196005;59;1432;-69
2022/04/06 15:38:11;;;;;;;;;;;;;;;;;;2196379;59;1441;-69
2022/04/06 15:40:47;;;;;;;;;;;;;;;;;;2194912;59;1922;-69
2022/04/06 15:43:20;;;;;;;;;;;;;;;;;;2197184;59;1222;-69
2022/04/06 15:45:54;;;;;;;;;;;;;;;;;;2197775;67;1116;-69
2022/04/06 15:48:27;;;;;;;;;;;;;;;;;;2196475;59;1275;-69
2022/04/06 15:51:00;;;;;;;;;;;;;;;;;;2195687;67;1219;-69
2022/04/06 15:53:33;;;;;;;;;;;;;;;;;;2195696;59;1199;-69
2022/04/06 15:56:13;;;;;;;;;;;;;;;;;;2196017;60;1210;-69
2022/04/06 15:58:46;;;;;;;;;;;;;;;;;;2195612;67;1161;-71
2022/04/06 16:01:19;;;;;;;;;;;;;;;;;;2194377;59;1924;-72
2022/04/06 16:03:52;;;;;;;;;;;;;;;;;;2194735;59;1159;-71
2022/04/06 16:06:25;;;;;;;;;;;;;;;;;;2196144;59;1306;-71
2022/04/06 16:09:00;;;;;;;;;;;;;;;;;;2193210;59;1332;-71
2022/04/06 16:11:36;;;;;;;;;;;;;;;;;;2192360;59;2468;-71
2022/04/06 16:14:10;;;;;;;;;;;;;;;;;;2192077;59;1653;-71
2022/04/06 16:16:43;;;;;;;;;;;;;;;;;;2194345;59;2112;-71
2022/04/06 16:19:16;;;;;;;;;;;;;;;;;;2195175;59;1794;-69
2022/04/06 16:21:49;;;;;;;;;;;;;;;;;;2195503;59;1938;-69
2022/04/06 16:24:23;;;;;;;;;;;;;;;;;;2195168;60;2172;-69
2022/04/06 16:26:59;;;;;;;;;;;;;;;;;;2194876;59;2297;-68
2022/04/06 16:29:32;;;;;;;;;;;;;;;;;;2196992;67;1279;-68
2022/04/06 16:32:06;;;;;;;;;;;;;;;;;;2196083;59;1323;-68
2022/04/06 16:34:39;;;;;;;;;;;;;;;;;;2197560;59;2146;-71
2022/04/06 16:37:12;;;;;;;;;;;;;;;;;;2197175;59;1428;-71
2022/04/06 16:39:45;;;;;;;;;;;;;;;;;;2197260;59;1679;-71
2022/04/06 16:42:21;;;;;;;;;;;;;;;;;;2195592;59;1918;-71
2022/04/06 16:44:54;;;;;;;;;;;;;;;;;;2195680;59;1614;-70
2022/04/06 16:47:27;;;;;;;;;;;;;;;;;;2195812;59;1286;-71
2022/04/06 16:52:51;;;;;;;;;;;;;;;;;;2194157;59;1761;-71
2022/04/06 16:55:24;;;;;;;;;;;;;;;;;;2194517;59;1665;-71
2022/04/06 16:58:01;;;;;;;;;;;;;;;;;;2195886;59;1357;-71
2022/04/06 17:00:35;;;;;;;;;;;;;;;;;;2195328;59;1735;-70
2022/04/06 17:03:10;;;;;;;;;;;;;;;;;;2196298;59;1921;-69
2022/04/06 17:05:44;;;;;;;;;;;;;;;;;;2196720;59;1648;-69
2022/04/06 17:08:17;;;;;;;;;;;;;;;;;;2196459;59;1223;-70
2022/04/06 17:10:50;;;;;;;;;;;;;;;;;;2197651;59;1308;-69
2022/04/06 17:13:26;;;;;;;;;;;;;;;;;;2194908;59;1274;-70
2022/04/06 17:15:59;;;;;;;;;;;;;;;;;;2197956;59;1273;-69
2022/04/06 17:18:33;;;;;;;;;;;;;;;;;;2196501;59;1214;-70
2022/04/06 17:21:06;;;;;;;;;;;;;;;;;;2194862;59;1969;-70
2022/04/06 17:23:39;;;;;;;;;;;;;;;;;;2195125;59;1253;-69
2022/04/06 17:26:12;;;;;;;;;;;;;;;;;;2189909;59;2362;-70
2022/04/06 17:28:48;;;;;;;;;;;;;;;;;;2195470;59;1380;-70
2022/04/06 17:31:21;;;;;;;;;;;;;;;;;;2196473;59;2235;-72
2022/04/06 17:33:55;;;;;;;;;;;;;;;;;;2196123;59;2608;-72
2022/04/06 17:36:29;;;;;;;;;;;;;;;;;;2197583;59;2343;-71
2022/04/06 17:39:02;;;;;;;;;;;;;;;;;;2197918;59;1393;-71
2022/04/06 17:41:36;;;;;;;;;;;;;;;;;;2194221;59;2128;-71
2022/04/06 17:44:12;;;;;;;;;;;;;;;;;;2197518;59;1578;-72
2022/04/06 17:46:45;;;;;;;;;;;;;;;;;;2197947;59;1236;-71
2022/04/06 17:49:18;;;;;;;;;;;;;;;;;;2196413;59;1487;-71
2022/04/06 17:51:51;;;;;;;;;;;;;;;;;;2207995;59;1223;-71
2022/04/06 17:54:25;;;;;;;;;;;;;;;;;;2196525;67;1177;-71
2022/04/06 17:56:58;;;;;;;;;;;;;;;;;;2195590;59;1689;-72
2022/04/06 17:59:34;;;;;;;;;;;;;;;;;;2193591;59;1856;-71
2022/04/06 18:02:08;;;;;;;;;;;;;;;;;;2195577;59;1975;-72
2022/04/06 18:04:41;;;;;;;;;;;;;;;;;;2196091;67;1079;-71
2022/04/06 18:07:14;;;;;;;;;;;;;;;;;;2195087;59;1196;-71
2022/04/06 18:09:47;;;;;;;;;;;;;;;;;;2197133;67;1269;-71
2022/04/06 18:15:12;;;;;;;;;;;;;;;;;;2194850;59;1284;-71